createdAt,value
2022-09-25T00:01:15.581Z,15.30
2022-09-25T00:03:42.964Z,15.43
2022-09-25T00:06:13.916Z,15.13
2022-09-25T00:08:41.539Z,14.95
2022-09-25T00:11:11.320Z,15.45
2022-09-25T00:13:40.690Z,15.57
2022-09-25T00:16:10.681Z,15.88
2022-09-25T00:18:56.196Z,16.20
2022-09-25T00:21:23.571Z,16.77
2022-09-25T00:23:50.968Z,16.38
2022-09-25T00:26:18.270Z,15.45
2022-09-25T00:28:45.479Z,15.02
2022-09-25T00:31:20.374Z,15.32
2022-09-25T00:33:47.583Z,16.42
2022-09-25T00:36:14.694Z,15.63
2022-09-25T00:38:41.891Z,15.35
2022-09-25T00:41:09.132Z,15.15
2022-09-25T00:43:41.978Z,16.70
2022-09-25T00:46:15.213Z,15.07
2022-09-25T00:48:53.835Z,15.23
2022-09-25T00:51:29.869Z,16.65
2022-09-25T00:54:04.868Z,15.27
2022-09-25T00:56:39.508Z,15.18
2022-09-25T00:59:12.012Z,16.55
2022-09-25T01:01:39.377Z,17.15
2022-09-25T01:04:07.782Z,16.35
2022-09-25T01:06:36.318Z,16.55
2022-09-25T01:09:03.401Z,15.55
2022-09-25T01:11:31.447Z,14.52
2022-09-25T01:14:02.720Z,15.25
2022-09-25T01:16:44.903Z,16.63
2022-09-25T01:19:43.482Z,17.10
2022-09-25T01:22:36.868Z,17.20
2022-09-25T01:25:37.164Z,17.65
2022-09-25T01:28:32.428Z,15.77
2022-09-25T01:31:04.835Z,17.13
2022-09-25T01:33:37.505Z,16.30
2022-09-25T01:36:29.670Z,15.95
2022-09-25T01:39:36.009Z,15.82
2022-09-25T01:42:17.497Z,17.35
2022-09-25T01:44:52.226Z,15.65
2022-09-25T01:47:23.350Z,17.25
2022-09-25T01:49:56.128Z,18.60
2022-09-25T01:52:28.657Z,17.70
2022-09-25T01:55:08.022Z,18.92
2022-09-25T01:57:41.751Z,18.35
2022-09-25T02:00:12.848Z,17.52
2022-09-25T02:03:09.725Z,18.30
2022-09-25T02:05:53.303Z,17.02
2022-09-25T02:08:25.157Z,16.48
2022-09-25T02:10:58.483Z,17.08
2022-09-25T02:13:43.616Z,15.30
2022-09-25T02:16:17.093Z,17.70
2022-09-25T02:19:03.731Z,17.73
2022-09-25T02:21:43.067Z,16.90
2022-09-25T02:24:37.480Z,17.80
2022-09-25T02:27:05.127Z,18.30
2022-09-25T02:29:32.741Z,18.88
2022-09-25T02:32:05.286Z,19.58
2022-09-25T02:34:33.530Z,18.60
2022-09-25T02:37:00.571Z,18.98
2022-09-25T02:39:30.547Z,17.15
2022-09-25T02:42:06.699Z,18.17
2022-09-25T02:44:55.829Z,17.60
2022-09-25T02:47:33.447Z,15.82
2022-09-25T02:50:16.372Z,16.02
2022-09-25T02:53:21.977Z,16.52
2022-09-25T02:55:51.953Z,18.58
2022-09-25T02:58:21.762Z,16.92
2022-09-25T03:00:52.613Z,16.88
2022-09-25T03:03:21.416Z,16.65
2022-09-25T03:05:51.880Z,17.40
2022-09-25T03:08:39.629Z,18.00
2022-09-25T03:11:09.260Z,17.42
2022-09-25T03:13:37.658Z,17.33
2022-09-25T03:16:07.184Z,15.82
2022-09-25T03:18:34.736Z,18.37
2022-09-25T03:21:04.517Z,18.90
2022-09-25T03:23:35.326Z,16.77
2022-09-25T03:26:02.620Z,17.52
2022-09-25T03:28:29.908Z,15.82
2022-09-25T03:31:08.408Z,18.17
2022-09-25T03:33:38.539Z,17.40
2022-09-25T03:36:09.916Z,16.80
2022-09-25T03:38:37.739Z,18.95
2022-09-25T03:41:09.698Z,17.63
2022-09-25T03:43:38.543Z,19.10
2022-09-25T03:46:07.940Z,18.02
2022-09-25T03:48:36.669Z,18.33
2022-09-25T03:51:04.722Z,18.83
2022-09-25T03:53:33.924Z,19.65
2022-09-25T03:56:02.576Z,17.95
2022-09-25T03:58:29.895Z,18.42
2022-09-25T04:00:58.189Z,18.17
2022-09-25T04:03:29.456Z,18.52
2022-09-25T04:05:58.409Z,18.23
2022-09-25T04:08:27.343Z,17.58
2022-09-25T04:10:56.556Z,18.10
2022-09-25T04:13:24.850Z,17.08
2022-09-25T04:15:52.125Z,16.27
2022-09-25T04:18:19.820Z,18.70
2022-09-25T04:20:47.020Z,19.48
2022-09-25T04:23:14.391Z,21.95
2022-09-25T04:25:41.840Z,21.85
2022-09-25T04:28:10.496Z,21.63
2022-09-25T04:30:37.862Z,19.08
2022-09-25T04:33:23.974Z,19.55
2022-09-25T04:35:51.179Z,20.35
2022-09-25T04:38:18.384Z,21.35
2022-09-25T04:40:46.345Z,19.90
2022-09-25T04:43:13.677Z,20.40
2022-09-25T04:45:40.977Z,20.08
2022-09-25T04:48:08.071Z,20.80
2022-09-25T04:50:35.483Z,20.10
2022-09-25T04:53:03.242Z,19.85
2022-09-25T04:55:30.881Z,19.35
2022-09-25T04:58:00.975Z,19.20
2022-09-25T05:00:30.909Z,19.60
2022-09-25T05:02:59.172Z,18.63
2022-09-25T05:05:30.928Z,20.58
2022-09-25T05:07:59.821Z,20.45
2022-09-25T05:10:30.065Z,19.98
2022-09-25T05:15:26.584Z,19.75
2022-09-25T05:18:06.209Z,19.20
2022-09-25T05:20:36.036Z,19.87
2022-09-25T05:23:04.698Z,20.05
2022-09-25T05:25:32.546Z,19.50
2022-09-25T05:28:01.117Z,19.25
2022-09-25T05:30:32.506Z,18.08
2022-09-25T05:32:59.646Z,18.98
2022-09-25T05:35:32.475Z,19.65
2022-09-25T05:37:59.996Z,18.67
2022-09-25T05:40:27.705Z,19.83
2022-09-25T05:42:58.617Z,18.08
2022-09-25T05:45:26.182Z,17.65
2022-09-25T05:48:08.016Z,18.42
2022-09-25T05:50:35.542Z,17.10
2022-09-25T05:53:05.673Z,17.75
2022-09-25T05:55:32.944Z,20.27
2022-09-25T05:58:02.212Z,20.98
2022-09-25T06:00:29.345Z,17.92
2022-09-25T06:02:56.634Z,18.73
2022-09-25T06:05:23.794Z,20.40
2022-09-25T06:07:55.322Z,19.92
2022-09-25T06:10:23.307Z,20.35
2022-09-25T06:12:50.502Z,18.50
2022-09-25T06:15:17.706Z,19.17
2022-09-25T06:17:45.009Z,20.83
2022-09-25T06:20:16.109Z,19.20
2022-09-25T06:22:44.801Z,19.20
2022-09-25T06:25:12.483Z,18.77
2022-09-25T06:27:40.129Z,21.13
2022-09-25T06:30:07.863Z,19.60
2022-09-25T06:32:35.143Z,20.45
2022-09-25T06:35:02.579Z,21.35
2022-09-25T06:37:29.955Z,21.00
2022-09-25T06:39:57.224Z,22.17
2022-09-25T06:42:24.340Z,21.20
2022-09-25T06:44:51.549Z,22.83
2022-09-25T06:47:22.505Z,23.48
2022-09-25T06:49:52.499Z,22.65
2022-09-25T06:52:20.496Z,21.75
2022-09-25T06:54:47.789Z,22.75
2022-09-25T06:57:15.426Z,23.88
2022-09-25T06:59:42.719Z,24.33
2022-09-25T07:02:28.919Z,25.73
2022-09-25T07:04:56.272Z,23.70
2022-09-25T07:07:24.421Z,22.90
2022-09-25T07:09:51.467Z,22.55
2022-09-25T07:12:18.622Z,22.65
2022-09-25T07:14:47.199Z,23.80
2022-09-25T07:17:15.130Z,23.38
2022-09-25T07:19:42.384Z,24.60
2022-09-25T07:22:11.217Z,23.70
2022-09-25T07:24:39.384Z,22.48
2022-09-25T07:27:06.570Z,23.65
2022-09-25T07:29:35.969Z,22.33
2022-09-25T07:32:04.895Z,24.83
2022-09-25T07:34:34.676Z,26.15
2022-09-25T07:37:02.266Z,25.83
2022-09-25T07:39:29.541Z,25.90
2022-09-25T07:41:56.826Z,25.85
2022-09-25T07:44:28.919Z,25.83
2022-09-25T07:46:59.801Z,23.67
2022-09-25T07:49:27.866Z,24.23
2022-09-25T07:51:54.953Z,23.95
2022-09-25T07:54:22.272Z,25.17
2022-09-25T07:56:49.903Z,27.23
2022-09-25T07:59:17.154Z,25.48
2022-09-25T08:01:48.447Z,24.58
2022-09-25T08:04:18.586Z,23.63
2022-09-25T08:06:45.687Z,21.88
2022-09-25T08:09:13.024Z,21.58
2022-09-25T08:11:40.163Z,22.67
2022-09-25T08:14:07.569Z,22.30
2022-09-25T08:16:34.734Z,21.27
2022-09-25T08:19:18.012Z,23.40
2022-09-25T08:24:12.848Z,23.00
2022-09-25T08:26:40.074Z,25.20
2022-09-25T08:29:09.549Z,23.90
2022-09-25T08:31:37.130Z,23.17
2022-09-25T08:34:28.078Z,24.88
2022-09-25T08:36:51.542Z,23.70
2022-09-25T08:39:18.853Z,24.65
2022-09-25T08:41:50.158Z,24.45
2022-09-25T08:44:37.640Z,22.27
2022-09-25T08:47:40.434Z,22.92
2022-09-25T08:50:14.865Z,24.92
2022-09-25T08:52:46.353Z,25.60
2022-09-25T08:55:48.524Z,22.05
2022-09-25T08:58:24.879Z,22.25
2022-09-25T09:01:00.235Z,21.48
2022-09-25T09:03:30.556Z,20.73
2022-09-25T09:06:02.892Z,21.85
2022-09-25T09:08:33.906Z,21.83
2022-09-25T09:11:11.294Z,22.48
2022-09-25T09:13:51.629Z,22.48
2022-09-25T09:16:27.538Z,20.98
2022-09-25T09:18:56.139Z,22.45
2022-09-25T09:21:45.311Z,21.95
2022-09-25T09:24:19.122Z,26.23
2022-09-25T09:27:10.740Z,23.45
2022-09-25T09:29:59.360Z,21.67
2022-09-25T09:32:41.829Z,22.17
2022-09-25T09:35:47.026Z,22.38
2022-09-25T09:38:23.460Z,20.13
2022-09-25T09:41:01.291Z,19.92
2022-09-25T09:43:57.372Z,21.33
2022-09-25T09:46:35.767Z,20.98
2022-09-25T09:49:40.032Z,22.25
2022-09-25T09:52:11.874Z,22.58
2022-09-25T09:54:43.267Z,22.38
2022-09-25T09:57:23.226Z,21.58
2022-09-25T10:00:05.362Z,21.90
2022-09-25T10:02:43.484Z,21.55
2022-09-25T10:05:30.587Z,21.55
2022-09-25T10:07:57.989Z,20.58
2022-09-25T10:10:33.979Z,19.90
2022-09-25T10:13:06.743Z,18.45
2022-09-25T10:15:42.961Z,18.25
2022-09-25T10:18:11.429Z,17.75
2022-09-25T10:21:04.227Z,20.98
2022-09-25T10:23:46.460Z,19.70
2022-09-25T10:26:52.029Z,18.80
2022-09-25T10:29:21.882Z,17.75
2022-09-25T10:31:59.159Z,16.70
2022-09-25T10:34:29.824Z,16.25
2022-09-25T10:36:57.227Z,15.35
2022-09-25T10:39:44.626Z,16.30
2022-09-25T10:42:37.537Z,15.90
2022-09-25T10:45:22.930Z,15.07
2022-09-25T10:48:09.896Z,14.68
2022-09-25T10:50:37.427Z,13.52
2022-09-25T10:53:05.813Z,17.10
2022-09-25T10:55:46.587Z,17.98
2022-09-25T10:58:21.920Z,15.52
2022-09-25T11:00:52.196Z,13.60
2022-09-25T11:03:25.513Z,12.13
2022-09-25T11:06:00.483Z,11.82
2022-09-25T11:08:32.619Z,13.15
2022-09-25T11:11:01.757Z,14.05
2022-09-25T11:13:37.426Z,15.80
2022-09-25T11:16:10.557Z,14.40
2022-09-25T11:18:51.872Z,14.10
2022-09-25T11:21:30.873Z,14.00
2022-09-25T11:24:20.541Z,15.20
2022-09-25T11:27:11.756Z,13.98
2022-09-25T11:30:06.731Z,14.63
2022-09-25T11:32:52.585Z,13.98
2022-09-25T11:35:41.210Z,14.40
2022-09-25T11:39:07.729Z,13.98
2022-09-25T11:41:44.058Z,16.35
2022-09-25T11:44:32.276Z,14.88
2022-09-25T11:47:05.706Z,14.68
2022-09-25T11:49:36.657Z,14.73
2022-09-25T11:52:42.935Z,13.70
2022-09-25T11:55:15.925Z,13.95
2022-09-25T11:58:02.842Z,15.02
2022-09-25T12:00:29.875Z,14.75
2022-09-25T12:03:04.180Z,14.73
2022-09-25T12:05:43.044Z,14.65
2022-09-25T12:08:19.692Z,13.50
2022-09-25T12:11:04.776Z,12.32
2022-09-25T12:13:50.791Z,12.20
2022-09-25T12:16:33.404Z,11.35
2022-09-25T12:19:24.836Z,11.10
2022-09-25T12:22:12.944Z,10.38
2022-09-25T12:24:55.297Z,9.10
2022-09-25T12:27:42.177Z,8.30
2022-09-25T12:30:24.144Z,8.65
2022-09-25T12:33:07.278Z,8.55
2022-09-25T12:35:39.233Z,7.60
2022-09-25T12:38:11.183Z,6.72
2022-09-25T12:41:06.277Z,6.65
2022-09-25T12:43:53.262Z,6.85
2022-09-25T12:46:20.525Z,7.45
2022-09-25T12:49:16.594Z,7.18
2022-09-25T12:51:53.024Z,6.70
2022-09-25T12:55:01.270Z,6.78
2022-09-25T12:57:38.674Z,6.85
2022-09-25T13:00:24.334Z,6.53
2022-09-25T13:03:14.521Z,7.25
2022-09-25T13:05:53.389Z,8.10
2022-09-25T13:08:27.824Z,7.60
2022-09-25T13:11:04.443Z,7.88
2022-09-25T13:13:40.283Z,8.10
2022-09-25T13:16:07.487Z,8.60
2022-09-25T13:18:36.194Z,8.02
2022-09-25T13:21:06.185Z,7.45
2022-09-25T13:23:40.819Z,8.63
2022-09-25T13:26:14.661Z,8.23
2022-09-25T13:29:07.794Z,8.18
2022-09-25T13:31:37.275Z,8.65
2022-09-25T13:34:12.571Z,9.07
2022-09-25T13:36:55.701Z,8.30
2022-09-25T13:39:44.084Z,8.18
2022-09-25T13:42:23.490Z,8.95
2022-09-25T13:44:52.736Z,8.57
2022-09-25T13:47:25.558Z,8.25
2022-09-25T13:50:04.550Z,8.85
2022-09-25T13:52:41.017Z,7.35
2022-09-25T13:55:14.161Z,7.80
2022-09-25T13:57:56.428Z,7.47
2022-09-25T14:00:24.017Z,7.90
2022-09-25T14:02:51.437Z,8.40
2022-09-25T14:05:22.182Z,8.38
2022-09-25T14:07:55.813Z,8.00
2022-09-25T14:10:24.076Z,7.95
2022-09-25T14:12:52.019Z,7.53
2022-09-25T14:15:40.473Z,7.35
2022-09-25T14:18:16.884Z,7.38
2022-09-25T14:20:50.714Z,6.82
2022-09-25T14:23:20.675Z,7.47
2022-09-25T14:26:07.595Z,7.15
2022-09-25T14:28:45.342Z,6.93
2022-09-25T14:31:33.291Z,6.85
2022-09-25T14:34:37.995Z,7.20
2022-09-25T14:37:11.456Z,6.53
2022-09-25T14:40:04.022Z,7.05
2022-09-25T14:42:51.510Z,6.43
2022-09-25T14:45:49.521Z,6.13
2022-09-25T14:48:26.947Z,4.88
2022-09-25T14:51:01.748Z,5.05
2022-09-25T14:53:33.635Z,5.15
2022-09-25T14:56:03.125Z,4.25
2022-09-25T14:58:33.072Z,5.00
2022-09-25T15:01:14.005Z,4.90
2022-09-25T15:03:47.040Z,5.40
2022-09-25T15:06:24.938Z,4.45
2022-09-25T15:08:53.070Z,4.07
2022-09-25T15:11:21.961Z,3.80
2022-09-25T15:13:49.289Z,3.90
2022-09-25T15:16:44.043Z,4.10
2022-09-25T15:19:25.888Z,3.85
2022-09-25T15:21:54.260Z,4.20
2022-09-25T15:24:27.912Z,4.85
2022-09-25T15:27:06.408Z,4.63
2022-09-25T15:29:38.351Z,4.60
2022-09-25T15:32:06.780Z,4.00
2022-09-25T15:34:34.259Z,4.13
2022-09-25T15:37:17.601Z,3.90
2022-09-25T15:39:45.141Z,3.75
2022-09-25T15:42:14.211Z,3.80
2022-09-25T15:44:42.193Z,3.83
2022-09-25T15:47:34.830Z,4.00
2022-09-25T15:50:03.817Z,4.13
2022-09-25T15:52:35.188Z,4.22
2022-09-25T15:55:06.795Z,4.35
2022-09-25T15:57:34.310Z,4.30
2022-09-25T16:00:26.544Z,4.35
2022-09-25T16:03:44.673Z,4.75
2022-09-25T16:06:16.990Z,4.75
2022-09-25T16:08:44.877Z,4.82
2022-09-25T16:11:22.938Z,4.57
2022-09-25T16:13:54.035Z,4.78
2022-09-25T16:16:23.537Z,5.35
2022-09-25T16:18:54.145Z,5.45
2022-09-25T16:21:24.484Z,5.32
2022-09-25T16:23:56.227Z,4.70
2022-09-25T16:26:26.551Z,5.68
2022-09-25T16:29:03.387Z,7.90
2022-09-25T16:31:31.420Z,5.28
2022-09-25T16:34:00.684Z,5.32
2022-09-25T16:36:37.310Z,5.45
2022-09-25T16:39:10.114Z,4.95
2022-09-25T16:41:39.480Z,5.15
2022-09-25T16:44:22.067Z,5.53
2022-09-25T16:46:52.468Z,5.80
2022-09-25T16:49:22.667Z,6.13
2022-09-25T16:51:52.547Z,5.88
2022-09-25T16:54:21.702Z,5.43
2022-09-25T16:56:49.571Z,5.75
2022-09-25T16:59:19.686Z,5.63
2022-09-25T17:01:48.347Z,5.35
2022-09-25T17:04:16.147Z,5.05
2022-09-25T17:06:46.010Z,4.70
2022-09-25T17:09:16.226Z,5.55
2022-09-25T17:11:45.871Z,5.30
2022-09-25T17:14:24.553Z,5.10
2022-09-25T17:16:53.278Z,5.25
2022-09-25T17:19:21.549Z,5.75
2022-09-25T17:21:51.568Z,5.05
2022-09-25T17:24:24.198Z,5.22
2022-09-25T17:26:54.876Z,5.35
2022-09-25T17:29:22.875Z,5.45
2022-09-25T17:31:49.979Z,6.45
2022-09-25T17:34:28.755Z,7.53
2022-09-25T17:36:56.753Z,7.35
2022-09-25T17:39:24.314Z,7.55
2022-09-25T17:41:51.759Z,8.32
2022-09-25T17:44:23.071Z,7.70
2022-09-25T17:46:52.015Z,9.68
2022-09-25T17:49:19.502Z,6.93
2022-09-25T17:51:47.170Z,6.78
2022-09-25T17:54:14.378Z,7.50
2022-09-25T17:56:42.796Z,6.57
2022-09-25T17:59:10.357Z,6.97
2022-09-25T18:01:39.740Z,7.85
2022-09-25T18:04:26.071Z,8.13
2022-09-25T18:06:53.377Z,10.65
2022-09-25T18:09:20.834Z,9.35
2022-09-25T18:11:48.274Z,9.63
2022-09-25T18:14:16.574Z,10.07
2022-09-25T18:16:44.956Z,10.18
2022-09-25T18:19:38.792Z,10.50
2022-09-25T18:22:18.356Z,12.45
2022-09-25T18:24:46.915Z,11.47
2022-09-25T18:27:15.216Z,10.82
2022-09-25T18:29:44.763Z,9.48
2022-09-25T18:32:11.980Z,8.90
2022-09-25T18:34:39.343Z,9.02
2022-09-25T18:37:06.556Z,8.20
2022-09-25T18:39:34.582Z,7.53
2022-09-25T18:42:01.764Z,8.07
2022-09-25T18:44:29.231Z,7.00
2022-09-25T18:46:56.378Z,6.85
2022-09-25T18:49:25.144Z,6.55
2022-09-25T18:51:52.297Z,6.30
2022-09-25T18:54:20.636Z,6.20
2022-09-25T18:56:47.810Z,6.97
2022-09-25T18:59:15.516Z,6.72
2022-09-25T19:01:42.775Z,6.43
2022-09-25T19:04:15.873Z,6.60
2022-09-25T19:06:42.972Z,6.63
2022-09-25T19:09:15.468Z,6.70
2022-09-25T19:11:44.163Z,6.38
2022-09-25T19:14:15.060Z,6.40
2022-09-25T19:16:42.667Z,6.22
2022-09-25T19:19:09.972Z,6.95
2022-09-25T19:21:37.062Z,6.38
2022-09-25T19:24:04.879Z,6.25
2022-09-25T19:26:32.126Z,6.35
2022-09-25T19:29:00.668Z,5.95
2022-09-25T19:31:29.192Z,5.88
2022-09-25T19:33:56.754Z,7.30
2022-09-25T19:36:26.949Z,7.20
2022-09-25T19:38:54.788Z,7.53
2022-09-25T19:41:26.576Z,8.00
2022-09-25T19:43:57.316Z,10.93
2022-09-25T19:46:25.990Z,10.30
2022-09-25T19:48:53.204Z,8.32
2022-09-25T19:51:22.723Z,10.50
2022-09-25T19:53:50.781Z,10.10
2022-09-25T19:56:19.416Z,10.32
2022-09-25T19:58:51.244Z,12.38
2022-09-25T20:01:27.695Z,10.43
2022-09-25T20:03:58.695Z,10.07
2022-09-25T20:06:27.158Z,10.15
2022-09-25T20:09:03.788Z,11.00
2022-09-25T20:11:32.679Z,12.43
2022-09-25T20:14:02.261Z,14.20
2022-09-25T20:16:30.421Z,13.30
2022-09-25T20:19:03.334Z,14.88
2022-09-25T20:21:34.545Z,14.20
2022-09-25T20:24:04.107Z,12.88
2022-09-25T20:26:32.158Z,13.83
2022-09-25T20:29:01.868Z,12.98
2022-09-25T20:31:32.659Z,13.85
2022-09-25T20:33:59.993Z,13.27
2022-09-25T20:36:27.667Z,12.18
2022-09-25T20:38:56.255Z,12.73
2022-09-25T20:41:25.476Z,12.10
2022-09-25T20:43:54.870Z,13.32
2022-09-25T20:46:24.150Z,12.23
2022-09-25T20:48:53.196Z,11.88
2022-09-25T20:51:27.222Z,11.30
2022-09-25T20:54:07.006Z,11.73
2022-09-25T20:56:36.101Z,11.35
2022-09-25T20:59:04.222Z,11.80
2022-09-25T21:01:35.213Z,12.25
2022-09-25T21:04:04.065Z,11.77
2022-09-25T21:06:33.385Z,12.70
2022-09-25T21:09:03.825Z,12.90
2022-09-25T21:14:02.848Z,13.10
2022-09-25T21:16:31.753Z,14.13
2022-09-25T21:19:01.922Z,16.02
2022-09-25T21:21:29.261Z,15.25
2022-09-25T21:23:58.360Z,16.30
2022-09-25T21:26:28.354Z,16.52
2022-09-25T21:28:57.331Z,17.10
2022-09-25T21:31:27.524Z,16.17
2022-09-25T21:33:56.898Z,17.25
2022-09-25T21:36:25.622Z,16.23
2022-09-25T21:38:53.062Z,17.42
2022-09-25T21:41:22.849Z,16.80
2022-09-25T21:43:54.054Z,15.50
2022-09-25T21:46:21.638Z,16.75
2022-09-25T21:49:00.378Z,17.63
2022-09-25T21:51:30.476Z,17.67
2022-09-25T21:53:57.739Z,17.65
2022-09-25T21:56:27.579Z,17.77
2022-09-25T21:58:55.900Z,17.73
2022-09-25T22:01:26.294Z,17.25
2022-09-25T22:06:26.599Z,16.52
2022-09-25T22:08:59.695Z,16.40
2022-09-25T22:11:27.911Z,17.42
2022-09-25T22:13:57.536Z,17.80
2022-09-25T22:16:27.708Z,16.60
2022-09-25T22:18:58.347Z,18.80
2022-09-25T22:21:28.422Z,18.95
2022-09-25T22:23:56.813Z,19.95
2022-09-25T22:26:24.650Z,19.48
2022-09-25T22:28:52.192Z,19.75
2022-09-25T22:31:30.305Z,20.35
2022-09-25T22:34:05.534Z,21.42
2022-09-25T22:36:35.331Z,22.15
2022-09-25T22:39:04.369Z,21.55
2022-09-25T22:41:31.835Z,19.88
2022-09-25T22:44:00.946Z,22.13
2022-09-25T22:46:28.989Z,23.00
2022-09-25T22:48:56.414Z,21.20
2022-09-25T22:51:25.434Z,23.33
2022-09-25T22:53:54.012Z,22.40
2022-09-25T22:56:26.402Z,23.25
2022-09-25T22:58:59.671Z,24.60
2022-09-25T23:01:37.934Z,24.92
2022-09-25T23:04:11.604Z,25.80
2022-09-25T23:06:38.934Z,26.40
2022-09-25T23:09:09.215Z,25.23
2022-09-25T23:11:36.357Z,25.48
2022-09-25T23:14:07.060Z,26.58
2022-09-25T23:16:34.361Z,25.27
2022-09-25T23:19:02.084Z,26.58
2022-09-25T23:21:30.926Z,27.27
2022-09-25T23:24:02.705Z,27.55
2022-09-25T23:26:30.509Z,26.52
2022-09-25T23:29:03.839Z,26.60
2022-09-25T23:31:32.492Z,28.48
2022-09-25T23:34:03.548Z,28.35
2022-09-25T23:36:31.581Z,29.13
2022-09-25T23:39:00.320Z,28.45
2022-09-25T23:41:31.601Z,29.50
2022-09-25T23:44:00.093Z,30.10
2022-09-25T23:46:30.263Z,28.67
2022-09-25T23:48:57.848Z,28.85
2022-09-25T23:51:26.366Z,28.58
2022-09-25T23:53:56.756Z,28.08
2022-09-25T23:58:52.553Z,28.13
